Latest Coastal Weather Observations for Merimbula

IDN60701

Issued at 3:45 pm EDT Monday 20 October 2014 (issued every 10 minutes, with the page automatically refreshed every 10 minutes)

About coastal observations | Map of coastal stations | Coastal observations for NSW | Marine services | Other Formats
Station Details ID: 069147 Name: MERIMBULA AIRPORT AWS Lat: -36.91 Lon: 149.90 Height: 1.5 m
Data from the previous 72 hours. | See also: Recent months at Merimbula
Date/Time
EDT
Temp

°C
Wind Pressure Rain
since 9am
mm
Weather Cloud Vis
km
Sea
Height
m
Swell
Dir
 
Speed
knots
Gust
knots
hPa Trend Height
m
Period
s
Dir
20/03:30pm 15.3 SE 8 12 1031.8 - 0.0 - Cloudy 10 - - - -
20/03:00pm 15.6 SE 8 11 1031.8 - 0.0 - Cloudy 10 - - - -
20/02:30pm 16.1 SE 9 13 1031.9 - 0.0 - Cloudy 10 - - - -
20/02:00pm 15.5 SE 9 14 1032.1 - 0.0 - Partly cloudy 10 - - - -
20/01:30pm 15.5 SE 7 11 1032.3 - 0.0 - Cloudy 10 - - - -
20/01:00pm 15.7 SE 6 10 1032.2 - 0.0 - Partly cloudy 10 - - - -
20/12:30pm 13.5 SSE 11 19 1032.5 - 0.0 - Partly cloudy 9 - - - -
20/12:00pm 14.1 ENE 2 5 1032.4 - 0.0 - Mostly cloudy 10 - - - -
20/11:47am 13.5 SSE 4 7 1032.5 - 0.0 - Partly cloudy 7 - - - -
20/11:36am 13.5 SSE 8 12 1032.7 - 0.0 - Partly cloudy 5 - - - -
20/11:30am 13.9 SSE 5 12 1032.7 - 0.0 - Partly cloudy 9 - - - -
20/11:16am 14.8 W 2 4 1032.5 - 0.0 - Partly cloudy 10 - - - -
20/11:00am 14.1 S 7 13 1032.6 - 0.0 - Partly cloudy 5 - - - -
20/10:59am 14.2 S 7 13 1032.6 - 0.0 - Partly cloudy 5 - - - -
20/10:30am 16.7 SSE 7 12 1032.2 - 0.0 - Partly cloudy 10 - - - -
20/10:00am 15.3 S 10 16 1032.0 - 0.0 - Partly cloudy 10 - - - -
20/09:30am 14.6 SSW 7 9 1031.7 - 0.0 - Partly cloudy 10 - - - -
20/09:00am 14.6 SSW 9 15 1031.4 - 0.0 - Cloudy 10 - - - -
20/08:30am 14.9 S 11 16 1030.8 - 0.0 - Partly cloudy 10 - - - -
20/08:00am 15.4 S 9 16 1030.4 - 0.0 - Partly cloudy 10 - - - -
20/07:30am 15.2 SSW 6 12 1029.8 - 0.0 - Partly cloudy 10 - - - -
20/07:00am 14.0 SSW 8 14 1029.4 - 0.0 - Partly cloudy 10 - - - -
20/06:30am 14.0 SSW 11 18 1029.0 - 0.0 - Cloudy 10 - - - -
20/06:00am 13.7 SSW 8 13 1028.3 - 0.0 - Mostly clear 10 - - - -
20/05:30am 13.6 SSW 9 15 1027.5 - 0.0 - Partly cloudy 10 - - - -
20/05:00am 14.2 S 11 18 1026.8 - 0.0 - - 10 - - - -
20/04:30am 14.6 SSW 10 21 1026.0 - 0.0 - - 10 - - - -
20/04:00am 15.1 SW 13 19 1025.4 - 0.0 - - 10 - - - -
20/03:31am 15.5 SW 16 26 1024.9 - 0.0 - - 10 - - - -
20/03:30am 15.5 SW 17 26 1024.8 - 0.0 - - 10 - - - -
20/03:00am 15.8 SSW 19 30 1024.4 - 0.0 - Cloudy 10 - - - -
20/02:34am 15.8 SW 15 25 1023.8 - 0.0 - - 10 - - - -
20/02:30am 15.9 SW 16 25 1023.8 - 0.0 - - 10 - - - -
20/02:09am 16.3 SSW 15 26 1023.3 - 0.0 - - 10 - - - -
20/02:00am 16.4 SSW 12 18 1023.0 - 0.0 - - 10 - - - -
20/01:30am 17.0 SW 12 19 1022.6 - 0.0 - - 10 - - - -
20/01:00am 17.4 SSW 15 24 1021.8 - 0.0 - - 10 - - - -
20/12:51am 17.7 SSW 15 20 1021.5 - 0.0 - - 10 - - - -
20/12:30am 16.3 SSW 3 7 1021.4 - 0.0 - - 10 - - - -
20/12:00am 16.6 NE 3 5 1021.3 - 0.0 - Cloudy 10 - - - -
 
Date/Time
EDT
Temp

°C
Wind Pressure Rain
since 9am
mm
Weather Cloud Vis
km
Sea
Height
m
Swell
Dir
 
Speed
knots
Gust
knots
hPa Trend Height
m
Period
s
Dir
19/11:30pm 16.7 WSW 2 7 1021.4 - 0.0 - - 10 - - - -
19/11:00pm 14.7 CALM 0 0 1020.6 - 0.0 - - 10 - - - -
19/10:30pm 14.7 CALM 0 0 1020.1 - 0.0 - - 10 - - - -
19/10:00pm 15.2 CALM 0 0 1020.3 - 0.0 - - 10 - - - -
19/09:30pm 15.3 CALM 0 0 1020.7 - 0.0 - - 10 - - - -
19/09:00pm 16.1 WNW 5 7 1020.1 - 0.0 - - 10 - - - -
19/08:51pm 15.7 WNW 2 7 1020.1 - 0.0 - - 9 - - - -
19/08:30pm 16.2 CALM 0 0 1020.0 - 0.0 - - 4 - - - -
19/08:17pm 16.5 CALM 0 0 1019.9 - 0.0 - - 5 - - - -
19/08:00pm 16.7 CALM 0 0 1019.5 - 0.0 - - 10 - - - -
19/07:30pm 17.9 CALM 0 0 1019.1 - 0.0 - - 10 - - - -
19/07:00pm 19.4 CALM 0 0 1018.8 - 0.0 - - 10 - - - -
19/06:30pm 20.9 SW 1 4 1018.7 - 0.0 - - 10 - - - -
19/06:00pm 20.3 S 4 6 1018.7 - 0.0 - Cloudy 10 - - - -
19/05:30pm 21.1 WSW 4 6 1018.7 - 0.0 - - 10 - - - -
19/05:00pm 21.6 NE 5 8 1018.7 - 0.0 - - 10 - - - -
19/04:30pm 21.3 NE 6 9 1018.7 - 0.0 - - 10 - - - -
19/04:00pm 21.9 ESE 1 5 1018.7 - 0.0 - - 10 - - - -
19/03:30pm 23.9 NE 8 11 1019.0 - 0.0 - - 10 - - - -
19/03:00pm 23.0 NE 9 11 1019.3 - 0.0 - - 10 - - - -
19/02:30pm 22.8 ENE 7 9 1019.7 - 0.0 - - 10 - - - -
19/02:00pm 21.9 NE 9 12 1020.1 - 0.0 - - 10 - - - -
19/01:30pm 22.9 E 7 11 1020.7 - 0.0 - - 10 - - - -
19/01:00pm 21.9 ENE 7 9 1020.9 - 0.0 - - 10 - - - -
19/12:30pm 22.7 E 5 7 1021.2 - 0.0 - - 10 - - - -
19/12:00pm 20.1 NE 5 8 1021.5 - 0.0 - Partly cloudy 10 - - - -
19/11:30am 19.7 E 4 5 1021.9 - 0.0 - - 10 - - - -
19/11:00am 20.3 NE 4 7 1022.2 - 0.0 - - 10 - - - -
19/10:30am 19.1 ENE 4 6 1022.6 - 0.0 - - 10 - - - -
19/10:00am 19.3 E 1 4 1022.7 - 0.0 - - 10 - - - -
19/09:30am 18.6 CALM 0 0 1023.2 - 0.0 - - 10 - - - -
19/09:00am 17.0 CALM 0 0 1023.3 - 0.0 - Mostly clear 10 - - - -
19/08:30am 14.5 CALM 0 0 1023.5 - 0.0 - - 10 - - - -
19/08:00am 12.9 CALM 0 0 1023.7 - 0.0 - - 10 - - - -
19/07:30am 11.5 CALM 0 0 1023.7 - 0.0 - - 10 - - - -
19/07:00am 9.6 CALM 0 0 1023.8 - 0.0 - - 10 - - - -
19/06:30am 8.8 CALM 0 0 1023.7 - 0.0 - - 10 - - - -
19/06:00am 8.9 CALM 0 0 1023.5 - 0.0 - - 10 - - - -
19/05:30am 9.2 CALM 0 0 1023.6 - 0.0 - - 10 - - - -
19/05:00am 9.2 CALM 0 0 1023.6 - 0.0 - - 10 - - - -
19/04:30am 8.9 CALM 0 0 1023.8 - 0.0 - - 10 - - - -
19/04:00am 9.4 CALM 0 0 1024.0 - 0.0 - - 10 - - - -
19/03:30am 9.0 CALM 0 0 1024.1 - 0.0 - - 7 - - - -
19/03:00am 9.0 CALM 0 0 1024.5 - 0.0 - Mostly clear 10 - - - -
19/02:30am 9.3 CALM 0 0 1024.7 - 0.0 - - 10 - - - -
19/02:00am 9.6 CALM 0 0 1025.1 - 0.0 - - 10 - - - -
19/01:30am 10.2 CALM 0 0 1025.4 - 0.0 - - 10 - - - -
19/01:00am 10.1 CALM 0 0 1025.8 - 0.0 - - 10 - - - -
19/12:30am 10.6 CALM 0 0 1026.2 - 0.0 - - 10 - - - -
19/12:00am 11.0 CALM 0 0 1026.0 - 0.0 - - 10 - - - -
 
Date/Time
EDT
Temp

°C
Wind Pressure Rain
since 9am
mm
Weather Cloud Vis
km
Sea
Height
m
Swell
Dir
 
Speed
knots
Gust
knots
hPa Trend Height
m
Period
s
Dir
18/11:30pm 11.0 CALM 0 0 1026.0 - 0.0 - - 10 - - - -
18/11:00pm 11.5 CALM 0 0 1025.8 - 0.0 - Partly cloudy 10 - - - -
18/10:30pm 12.4 CALM 0 0 1026.1 - 0.0 - - 10 - - - -
18/10:00pm 12.5 CALM 0 0 1026.4 - 0.0 - - 10 - - - -
18/09:30pm 13.5 CALM 0 0 1026.6 - 0.0 - - 10 - - - -
18/09:00pm 14.4 CALM 0 0 1026.7 - 0.0 - - 10 - - - -
18/08:30pm 15.1 N 4 6 1026.2 - 0.0 - - 10 - - - -
18/08:00pm 15.6 N 4 6 1025.9 - 0.0 - - 10 - - - -
18/07:30pm 16.0 N 5 10 1025.6 - 0.0 - - 10 - - - -
18/07:00pm 16.5 NNE 7 11 1025.2 - 0.0 - - 10 - - - -
18/06:30pm 17.0 NNE 8 12 1025.1 - 0.0 - - 10 - - - -
18/06:00pm 17.3 NNE 9 16 1024.9 - 0.0 - - 10 - - - -
18/05:30pm 17.9 NE 11 20 1024.8 - 0.0 - - 10 - - - -
18/05:00pm 18.3 NNE 10 17 1024.7 - 0.0 - - 10 - - - -
18/04:30pm 18.1 NNE 11 19 1025.0 - 0.0 - - 10 - - - -
18/04:00pm 18.5 NE 11 19 1025.0 - 0.0 - - 10 - - - -
18/03:30pm 18.4 NE 11 20 1025.4 - 0.0 - - 10 - - - -
18/03:00pm 18.7 NE 11 19 1025.8 - 0.0 - - 10 - - - -
18/02:30pm 18.3 NE 13 22 1026.3 - 0.0 - - 10 - - - -
18/02:00pm 18.1 NE 14 20 1026.6 - 0.0 - - 10 - - - -
18/01:30pm 18.4 NE 13 21 1026.7 - 0.0 - - 10 - - - -
18/01:00pm 17.9 NE 13 19 1027.1 - 0.0 - - 10 - - - -
18/12:30pm 18.1 NE 12 18 1027.4 - 0.0 - - 10 - - - -
18/12:00pm 18.2 NE 11 17 1027.8 - 0.0 - - 10 - - - -
18/11:30am 17.3 ENE 13 19 1028.1 - 0.0 - - 10 - - - -
18/11:00am 17.4 NE 11 16 1028.5 - 0.0 - - 10 - - - -
18/10:30am 16.8 NE 9 13 1029.0 - 0.0 - - 10 - - - -
18/10:00am 16.9 NE 6 10 1029.1 - 0.0 - - 10 - - - -
18/09:30am 16.1 ESE 5 8 1029.1 - 0.0 - - 10 - - - -
18/09:00am 14.8 E 4 5 1029.1 - 0.2 - - 10 - - - -
18/08:30am 13.0 CALM 0 0 1029.1 - 0.2 - - 10 - - - -
18/08:00am 10.3 SSW 1 3 1029.1 - 0.2 - - 10 - - - -
18/07:30am 8.7 SSW 2 5 1028.8 - 0.2 - - 10 - - - -
18/07:00am 7.6 CALM 0 0 1028.6 - 0.2 - - 10 - - - -
18/06:30am 6.5 CALM 0 0 1028.4 - 0.2 - - 10 - - - -
18/06:00am 6.9 CALM 0 0 1028.2 - 0.2 - - 10 - - - -
18/05:30am 6.7 CALM 0 0 1028.0 - 0.2 - - 10 - - - -
18/05:00am 7.4 CALM 0 0 1027.9 - 0.2 - - 10 - - - -
18/04:30am 7.2 CALM 0 0 1027.8 - 0.2 - - 10 - - - -
18/04:00am 7.9 CALM 0 0 1027.9 - 0.2 - - 10 - - - -
18/03:30am 8.7 WNW 4 6 1028.0 - 0.2 - - 10 - - - -
18/03:00am 9.8 SW 3 4 1028.2 - 0.2 - Mostly clear 10 - - - -
18/02:30am 10.4 CALM 0 0 1028.2 - 0.2 - Partly cloudy 10 - - - -
18/02:00am 11.0 CALM 0 0 1028.4 - 0.2 - Cloudy 10 - - - -
18/01:30am 11.2 CALM 0 0 1028.7 - 0.2 - Cloudy 10 - - - -
18/01:00am 11.2 CALM 0 0 1028.9 - 0.2 - Partly cloudy 10 - - - -
18/12:30am 11.4 CALM 0 0 1029.0 - 0.2 - Partly cloudy 10 - - - -
18/12:00am 11.6 CALM 0 0 1029.2 - 0.2 - Cloudy 10 - - - -
 
Date/Time
EDT
Temp

°C
Wind Pressure Rain
since 9am
mm
Weather Cloud Vis
km
Sea
Height
m
Swell
Dir
 
Speed
knots
Gust
knots
hPa Trend Height
m
Period
s
Dir
17/11:30pm 11.6 WNW 3 5 1029.2 - 0.2 - Partly cloudy 10 - - - -
17/11:00pm 11.6 CALM 0 0 1029.2 - 0.2 - Partly cloudy 10 - - - -
17/10:30pm 11.8 CALM 0 0 1029.1 - 0.2 - Cloudy 10 - - - -
17/10:00pm 12.1 CALM 0 0 1029.2 - 0.2 - Partly cloudy 10 - - - -
17/09:30pm 12.0 CALM 0 0 1029.2 - 0.2 - Partly cloudy 10 - - - -
17/09:00pm 12.5 SW 1 4 1029.2 - 0.2 - Mostly cloudy 10 - - - -
17/08:30pm 13.0 SSW 3 4 1028.9 - 0.2 - Cloudy 10 - - - -
17/08:00pm 13.3 SSW 4 5 1028.5 - 0.2 - Cloudy 10 - - - -
17/07:30pm 13.7 SSE 5 7 1028.1 - 0.2 - Cloudy 10 - - - -
17/07:00pm 14.0 SE 7 9 1027.8 - 0.2 - Cloudy 10 - - - -
17/06:30pm 14.2 SSE 6 9 1027.7 - 0.2 - Partly cloudy 10 - - - -
17/06:00pm 14.4 SE 6 9 1027.7 - 0.2 - Cloudy 10 - - - -
17/05:30pm 14.5 SSE 7 10 1027.5 - 0.2 - Cloudy 10 - - - -
17/05:00pm 14.6 SE 8 11 1027.2 - 0.2 - Cloudy 10 - - - -
17/04:30pm 15.0 SE 7 11 1027.1 - 0.2 - Partly cloudy 10 - - - -
17/04:00pm 15.9 SE 8 11 1027.0 - 0.2 - Partly cloudy 10 - - - -

Other Formats:

Comma delimited format used in spreadsheet applications
http://www.bom.gov.au/fwo/IDN60701/IDN60701.95929.axf

JavaScript Object Notation format (JSON) in row-major order
http://www.bom.gov.au/fwo/IDN60701/IDN60701.95929.json